OEDXB EKCH-EKCH
Flight info
| Callsign | OEDXB |
|---|---|
| Flight time | 0h 18m |
| Altitude | 1000 |
| Route | KEMAX DCT ERNOV |
| Aircraft | PA34/L-SDFGRY/S |
Departure
| Time | 2026-04-21 21:24 |
|---|---|
| Airport | Copenhagen Kastrup Airport (EKCH) |
Arrival
| Time | 2026-04-21 21:43 |
|---|---|
| Airport | Copenhagen Kastrup Airport (EKCH) |
| Time | Latitude | Longitude | Altitude | Speed | Heading |
|---|---|---|---|---|---|
| 2026-04-21 21:12 | 55.61820 | 12.67184 | 9 ft | 0 kts | 79° |
| 2026-04-21 21:20 | 55.61837 | 12.67172 | 9 ft | 11 kts | 281° |
| 2026-04-21 21:21 | 55.61823 | 12.67024 | 9 ft | 10 kts | 256° |
| 2026-04-21 21:21 | 55.61879 | 12.66956 | 10 ft | 16 kts | 313° |
| 2026-04-21 21:21 | 55.61870 | 12.66710 | 10 ft | 25 kts | 259° |
| 2026-04-21 21:21 | 55.61847 | 12.66506 | 11 ft | 19 kts | 260° |
| 2026-04-21 21:22 | 55.61926 | 12.66354 | 11 ft | 23 kts | 342° |
| 2026-04-21 21:22 | 55.62035 | 12.66293 | 13 ft | 6 kts | 342° |
| 2026-04-21 21:22 | 55.62055 | 12.66280 | 12 ft | 0 kts | 316° |
| 2026-04-21 21:22 | 55.62058 | 12.66278 | 12 ft | 5 kts | 342° |
| 2026-04-21 21:23 | 55.62100 | 12.66254 | 11 ft | 8 kts | 341° |
| 2026-04-21 21:23 | 55.62155 | 12.66218 | 10 ft | 7 kts | 340° |
| 2026-04-21 21:23 | 55.62146 | 12.66143 | 10 ft | 13 kts | 222° |
| 2026-04-21 21:23 | 55.62030 | 12.65963 | 12 ft | 31 kts | 221° |
| 2026-04-21 21:24 | 55.61744 | 12.65521 | 13 ft | 83 kts | 221° |
| 2026-04-21 21:24 | 55.61243 | 12.64740 | 159 ft | 102 kts | 225° |
| 2026-04-21 21:24 | 55.60737 | 12.63944 | 545 ft | 95 kts | 226° |
| 2026-04-21 21:24 | 55.60222 | 12.63151 | 739 ft | 101 kts | 226° |
| 2026-04-21 21:25 | 55.59672 | 12.62331 | 923 ft | 106 kts | 218° |
| 2026-04-21 21:25 | 55.58921 | 12.62211 | 1057 ft | 121 kts | 163° |
| 2026-04-21 21:25 | 55.58206 | 12.63132 | 1080 ft | 135 kts | 136° |
| 2026-04-21 21:25 | 55.57485 | 12.64299 | 1082 ft | 145 kts | 135° |
| 2026-04-21 21:26 | 55.56747 | 12.65500 | 1099 ft | 145 kts | 135° |
| 2026-04-21 21:26 | 55.56079 | 12.66772 | 1102 ft | 142 kts | 116° |
| 2026-04-21 21:26 | 55.55955 | 12.68401 | 1108 ft | 131 kts | 69° |
| 2026-04-21 21:26 | 55.56455 | 12.69647 | 1090 ft | 123 kts | 38° |
| 2026-04-21 21:27 | 55.57093 | 12.70651 | 1098 ft | 123 kts | 35° |
| 2026-04-21 21:27 | 55.57740 | 12.71658 | 1103 ft | 125 kts | 36° |
| 2026-04-21 21:27 | 55.58401 | 12.72683 | 1097 ft | 126 kts | 36° |
| 2026-04-21 21:27 | 55.59059 | 12.73685 | 1124 ft | 124 kts | 34° |
| 2026-04-21 21:28 | 55.59715 | 12.74697 | 1122 ft | 125 kts | 36° |
| 2026-04-21 21:28 | 55.60355 | 12.75700 | 1004 ft | 123 kts | 36° |
| 2026-04-21 21:28 | 55.61557 | 12.77586 | 1043 ft | 100 kts | 34° |
| 2026-04-21 21:29 | 55.62067 | 12.78416 | 1097 ft | 100 kts | 36° |
| 2026-04-21 21:29 | 55.62571 | 12.79244 | 1120 ft | 99 kts | 30° |
| 2026-04-21 21:29 | 55.63199 | 12.79344 | 1112 ft | 93 kts | 333° |
| 2026-04-21 21:29 | 55.63672 | 12.78551 | 1071 ft | 97 kts | 316° |
| 2026-04-21 21:30 | 55.64134 | 12.77683 | 1045 ft | 98 kts | 316° |
| 2026-04-21 21:30 | 55.64603 | 12.76791 | 1000 ft | 100 kts | 314° |
| 2026-04-21 21:30 | 55.65075 | 12.75865 | 957 ft | 102 kts | 313° |
| 2026-04-21 21:30 | 55.65530 | 12.74912 | 948 ft | 101 kts | 312° |
| 2026-04-21 21:31 | 55.66008 | 12.73983 | 882 ft | 103 kts | 314° |
| 2026-04-21 21:31 | 55.66227 | 12.72825 | 816 ft | 108 kts | 267° |
| 2026-04-21 21:31 | 55.65770 | 12.71743 | 714 ft | 118 kts | 216° |
| 2026-04-21 21:31 | 55.65127 | 12.70864 | 656 ft | 117 kts | 225° |
| 2026-04-21 21:32 | 55.64552 | 12.69897 | 555 ft | 113 kts | 226° |
| 2026-04-21 21:32 | 55.63969 | 12.68988 | 420 ft | 109 kts | 224° |
| 2026-04-21 21:32 | 55.63435 | 12.68151 | 285 ft | 98 kts | 225° |
| 2026-04-21 21:32 | 55.62931 | 12.67365 | 168 ft | 96 kts | 225° |
| 2026-04-21 21:33 | 55.62427 | 12.66580 | 50 ft | 97 kts | 225° |
| 2026-04-21 21:33 | 55.61981 | 12.65890 | 15 ft | 70 kts | 222° |
| 2026-04-21 21:33 | 55.61630 | 12.65347 | 12 ft | 82 kts | 224° |
| 2026-04-21 21:33 | 55.61148 | 12.64593 | 103 ft | 101 kts | 225° |
| 2026-04-21 21:34 | 55.60641 | 12.63764 | 410 ft | 96 kts | 227° |
| 2026-04-21 21:34 | 55.60163 | 12.62940 | 617 ft | 98 kts | 229° |
| 2026-04-21 21:34 | 55.59642 | 12.62098 | 747 ft | 104 kts | 226° |
| 2026-04-21 21:34 | 55.58993 | 12.61503 | 926 ft | 109 kts | 188° |
| 2026-04-21 21:35 | 55.58273 | 12.62005 | 1051 ft | 116 kts | 136° |
| 2026-04-21 21:35 | 55.57624 | 12.63020 | 1062 ft | 133 kts | 136° |
| 2026-04-21 21:35 | 55.56917 | 12.64151 | 1087 ft | 140 kts | 136° |
| 2026-04-21 21:35 | 55.56199 | 12.65336 | 1177 ft | 139 kts | 134° |
| 2026-04-21 21:36 | 55.55633 | 12.66584 | 1317 ft | 131 kts | 107° |
| 2026-04-21 21:36 | 55.55668 | 12.68214 | 1145 ft | 138 kts | 61° |
| 2026-04-21 21:36 | 55.56275 | 12.69452 | 1106 ft | 131 kts | 37° |
| 2026-04-21 21:36 | 55.56955 | 12.70536 | 1090 ft | 132 kts | 37° |
| 2026-04-21 21:37 | 55.57637 | 12.71622 | 1101 ft | 132 kts | 36° |
| 2026-04-21 21:37 | 55.58328 | 12.72698 | 1095 ft | 133 kts | 36° |
| 2026-04-21 21:37 | 55.59017 | 12.73778 | 1099 ft | 132 kts | 36° |
| 2026-04-21 21:37 | 55.59700 | 12.74858 | 1108 ft | 132 kts | 36° |
| 2026-04-21 21:38 | 55.60386 | 12.75945 | 1093 ft | 132 kts | 37° |
| 2026-04-21 21:38 | 55.61056 | 12.77015 | 1075 ft | 130 kts | 36° |
| 2026-04-21 21:38 | 55.61701 | 12.78050 | 1087 ft | 119 kts | 36° |
| 2026-04-21 21:38 | 55.62281 | 12.79000 | 1099 ft | 110 kts | 36° |
| 2026-04-21 21:39 | 55.62886 | 12.79661 | 1102 ft | 98 kts | 2° |
| 2026-04-21 21:39 | 55.63465 | 12.79184 | 1082 ft | 96 kts | 315° |
| 2026-04-21 21:39 | 55.63908 | 12.78291 | 1050 ft | 98 kts | 313° |
| 2026-04-21 21:39 | 55.64360 | 12.77378 | 999 ft | 100 kts | 313° |
| 2026-04-21 21:40 | 55.64823 | 12.76445 | 950 ft | 102 kts | 312° |
| 2026-04-21 21:40 | 55.65284 | 12.75493 | 909 ft | 103 kts | 312° |
| 2026-04-21 21:40 | 55.65750 | 12.74553 | 877 ft | 102 kts | 311° |
| 2026-04-21 21:40 | 55.66082 | 12.73456 | 839 ft | 104 kts | 284° |
| 2026-04-21 21:41 | 55.65959 | 12.72174 | 744 ft | 113 kts | 240° |
| 2026-04-21 21:41 | 55.65363 | 12.71206 | 627 ft | 115 kts | 226° |
| 2026-04-21 21:41 | 55.64793 | 12.70279 | 573 ft | 108 kts | 226° |
| 2026-04-21 21:41 | 55.64234 | 12.69401 | 498 ft | 108 kts | 224° |
| 2026-04-21 21:42 | 55.63688 | 12.68539 | 358 ft | 101 kts | 225° |
| 2026-04-21 21:42 | 55.63171 | 12.67728 | 228 ft | 100 kts | 225° |
| 2026-04-21 21:42 | 55.62650 | 12.66920 | 106 ft | 99 kts | 224° |
| 2026-04-21 21:42 | 55.62157 | 12.66163 | 15 ft | 83 kts | 225° |
| 2026-04-21 21:43 | 55.61796 | 12.65602 | 14 ft | 59 kts | 221° |
| 2026-04-21 21:43 | 55.61620 | 12.65294 | 9 ft | 22 kts | 247° |
| 2026-04-21 21:43 | 55.61616 | 12.65043 | 10 ft | 20 kts | 293° |
| 2026-04-21 21:43 | 55.61686 | 12.64876 | 11 ft | 12 kts | 316° |
| 2026-04-21 21:44 | 55.61732 | 12.64818 | 13 ft | 7 kts | 333° |
| 2026-04-21 21:44 | 55.61781 | 12.64791 | 13 ft | 9 kts | 351° |
| 2026-04-21 21:44 | 55.61820 | 12.64787 | 13 ft | 4 kts | 2° |
| 2026-04-21 21:44 | 55.61839 | 12.64790 | 12 ft | 2 kts | 12° |
| 2026-04-21 21:45 | 55.61844 | 12.64792 | 12 ft | 0 kts | 11° |
| 2026-04-21 21:46 | 55.61862 | 12.64800 | 11 ft | 11 kts | 18° |
| 2026-04-21 21:46 | 55.61946 | 12.64879 | 11 ft | 14 kts | 29° |
| 2026-04-21 21:46 | 55.62028 | 12.64971 | 14 ft | 16 kts | 33° |
| 2026-04-21 21:46 | 55.62134 | 12.65095 | 17 ft | 19 kts | 33° |
| 2026-04-21 21:47 | 55.62249 | 12.65198 | 16 ft | 18 kts | 4° |
| 2026-04-21 21:47 | 55.62293 | 12.65329 | 15 ft | 13 kts | 88° |
| 2026-04-21 21:47 | 55.62294 | 12.65471 | 13 ft | 9 kts | 90° |
| 2026-04-21 21:47 | 55.62297 | 12.65606 | 10 ft | 9 kts | 87° |
| 2026-04-21 21:48 | 55.62325 | 12.65660 | 9 ft | 0 kts | 5° |
| 2026-04-21 21:48 | 55.62345 | 12.65661 | 9 ft | 9 kts | 0° |
| 2026-04-21 21:48 | 55.62339 | 12.65628 | 9 ft | 2 kts | 176° |
| 2026-04-21 21:48 | 55.62336 | 12.65628 | 9 ft | 0 kts | 182° |